Terminal Aerodrome Forecast
Issued by NWS

Home | Current Version | Previous Version | Text Only | Print | Product List | Glossary On
Versions: 1 2 3 4 5 6 7 8 9 10 11 12
000
FTUS44 KLIX 312300
TAFMSY
TAF
KMSY 312339Z 0100/0124 10008KT P6SM SCT035 SCT150
     FM010700 12007KT P6SM BKN050
     FM011100 13007KT P6SM OVC025
     FM011500 17008KT P6SM OVC030
     FM011800 21010KT P6SM VCSH OVC035=

USA.gov is the U.S. government's official web portal to all federal, state and local government web resources and services.